createdAt,value
2018-05-03T00:00:58.652Z,9.93
2018-05-03T00:03:26.184Z,9.97
2018-05-03T00:05:54.464Z,10.60
2018-05-03T00:08:22.752Z,11.03
2018-05-03T00:10:50.286Z,10.87
2018-05-03T00:13:18.568Z,10.20
2018-05-03T00:15:46.855Z,10.67
2018-05-03T00:18:15.188Z,10.83
2018-05-03T00:20:42.684Z,10.73
2018-05-03T00:23:10.963Z,12.13
2018-05-03T00:25:39.280Z,11.17
2018-05-03T00:28:06.831Z,12.07
2018-05-03T00:30:34.391Z,11.27
2018-05-03T00:33:01.954Z,11.47
2018-05-03T00:35:29.514Z,11.57
2018-05-03T00:37:57.044Z,11.60
2018-05-03T00:40:25.357Z,12.90
2018-05-03T00:42:52.881Z,12.73
2018-05-03T00:45:21.192Z,13.97
2018-05-03T00:47:48.744Z,13.43
2018-05-03T00:50:16.293Z,12.53
2018-05-03T00:52:44.701Z,13.90
2018-05-03T00:55:12.235Z,13.30
2018-05-03T00:57:40.623Z,13.57
2018-05-03T01:00:08.140Z,14.93
2018-05-03T01:02:35.671Z,15.03
2018-05-03T01:05:03.197Z,14.67
2018-05-03T01:07:31.483Z,14.53
2018-05-03T01:09:59.013Z,15.10
2018-05-03T01:12:26.617Z,16.17
2018-05-03T01:14:54.131Z,15.87
2018-05-03T01:17:21.668Z,16.23
2018-05-03T01:19:49.183Z,15.77
2018-05-03T01:22:16.695Z,16.73
2018-05-03T01:24:44.228Z,16.30
2018-05-03T01:27:11.747Z,17.63
2018-05-03T01:29:40.028Z,18.67
2018-05-03T01:32:08.319Z,18.07
2018-05-03T01:34:35.840Z,18.70
2018-05-03T01:37:03.442Z,20.30
2018-05-03T01:39:30.977Z,19.50
2018-05-03T01:41:59.271Z,20.43
2018-05-03T01:44:26.787Z,20.03
2018-05-03T01:46:54.311Z,20.67
2018-05-03T01:49:21.826Z,20.40
2018-05-03T01:51:49.436Z,21.37
2018-05-03T01:54:16.964Z,19.73
2018-05-03T01:56:45.263Z,22.37
2018-05-03T01:59:12.799Z,20.37
2018-05-03T02:01:41.092Z,22.73
2018-05-03T02:04:08.602Z,21.63
2018-05-03T02:06:36.235Z,22.37
2018-05-03T02:09:03.770Z,20.33
2018-05-03T02:11:32.053Z,23.43
2018-05-03T02:13:59.572Z,22.60
2018-05-03T02:16:27.096Z,23.17
2018-05-03T02:18:54.610Z,26.90
2018-05-03T02:21:22.904Z,23.03
2018-05-03T02:23:50.434Z,23.20
2018-05-03T02:26:18.075Z,22.77
2018-05-03T02:28:45.582Z,23.17
2018-05-03T02:31:13.882Z,21.83
2018-05-03T02:33:41.400Z,25.10
2018-05-03T02:36:08.989Z,24.80
2018-05-03T02:38:37.297Z,22.93
2018-05-03T02:41:04.823Z,24.90
2018-05-03T02:43:33.104Z,25.60
2018-05-03T02:46:01.402Z,24.87
2018-05-03T02:48:28.911Z,27.00
2018-05-03T02:50:56.427Z,23.17
2018-05-03T02:53:23.961Z,24.27
2018-05-03T02:55:52.265Z,26.13
2018-05-03T02:58:31.799Z,28.73
2018-05-03T03:01:16.705Z,25.00
2018-05-03T03:04:01.916Z,25.93
2018-05-03T03:06:47.631Z,19.57
2018-05-03T03:09:32.624Z,19.93
2018-05-03T03:12:26.418Z,20.00
2018-05-03T03:15:11.704Z,21.43
2018-05-03T03:17:57.004Z,22.03
2018-05-03T03:20:54.584Z,26.07
2018-05-03T03:26:56.119Z,24.97
2018-05-03T03:29:41.220Z,29.87
2018-05-03T03:32:21.452Z,24.57
2018-05-03T03:38:20.592Z,22.73
2018-05-03T03:41:00.742Z,25.67
2018-05-03T03:43:40.222Z,29.03
2018-05-03T03:46:07.788Z,28.80
2018-05-03T03:48:35.328Z,24.77
2018-05-03T03:51:02.860Z,28.17
2018-05-03T03:53:30.470Z,28.83
2018-05-03T03:55:58.049Z,24.47
2018-05-03T03:58:25.710Z,31.73
2018-05-03T04:00:53.220Z,31.70
2018-05-03T04:03:21.502Z,31.27
2018-05-03T04:05:49.794Z,36.33
2018-05-03T04:08:17.318Z,31.17
2018-05-03T04:10:45.617Z,30.90
2018-05-03T04:13:13.960Z,34.63
2018-05-03T04:15:41.483Z,37.10
2018-05-03T04:18:21.016Z,28.07
2018-05-03T04:21:09.141Z,36.97
2018-05-03T04:23:49.318Z,27.50
2018-05-03T04:26:16.860Z,28.73
2018-05-03T04:28:45.147Z,32.53
2018-05-03T04:31:12.676Z,38.30
2018-05-03T04:33:40.288Z,35.27
2018-05-03T04:36:07.816Z,31.90
2018-05-03T04:38:36.113Z,34.10
2018-05-03T04:41:03.641Z,35.30
2018-05-03T04:43:31.162Z,33.80
2018-05-03T04:45:58.696Z,34.80
2018-05-03T04:48:26.266Z,35.70
2018-05-03T04:50:53.785Z,32.63
2018-05-03T04:53:21.320Z,34.07
2018-05-03T04:55:48.841Z,33.30
2018-05-03T04:58:16.409Z,35.67
2018-05-03T05:00:44.074Z,37.07
2018-05-03T05:03:11.579Z,36.13
2018-05-03T05:05:39.189Z,39.33
2018-05-03T05:08:06.729Z,41.70
2018-05-03T05:10:35.047Z,40.27
2018-05-03T05:13:02.561Z,41.50
2018-05-03T05:15:30.849Z,41.27
2018-05-03T05:17:59.157Z,39.13
2018-05-03T05:20:26.669Z,39.87
2018-05-03T05:22:54.989Z,41.13
2018-05-03T05:25:22.549Z,36.83
2018-05-03T05:27:50.107Z,35.97
2018-05-03T05:30:17.645Z,42.83
2018-05-03T05:32:45.934Z,37.23
2018-05-03T05:35:13.473Z,38.10
2018-05-03T05:37:41.879Z,34.50
2018-05-03T05:40:09.397Z,35.37
2018-05-03T05:42:36.921Z,37.67
2018-05-03T05:45:04.445Z,37.83
2018-05-03T05:47:32.723Z,36.40
2018-05-03T05:50:00.999Z,35.47
2018-05-03T05:52:29.286Z,29.57
2018-05-03T05:54:56.829Z,28.73
2018-05-03T05:57:26.041Z,32.50
2018-05-03T05:59:54.325Z,28.50
2018-05-03T06:02:21.839Z,28.97
2018-05-03T06:04:49.464Z,25.90
2018-05-03T06:07:17.027Z,32.57
2018-05-03T06:09:44.537Z,29.63
2018-05-03T06:12:12.079Z,21.07
2018-05-03T06:14:39.611Z,22.63
2018-05-03T06:17:07.222Z,23.50
2018-05-03T06:19:34.668Z,23.63
2018-05-03T06:22:02.195Z,25.27
2018-05-03T06:24:29.712Z,22.80
2018-05-03T06:26:58.006Z,24.77
2018-05-03T06:29:25.553Z,23.33
2018-05-03T06:31:53.845Z,16.40
2018-05-03T06:34:21.374Z,20.17
2018-05-03T06:36:49.706Z,21.20
2018-05-03T06:39:17.238Z,16.30
2018-05-03T06:41:44.777Z,20.07
2018-05-03T06:44:13.300Z,16.13
2018-05-03T06:46:40.836Z,16.17
2018-05-03T06:49:09.119Z,16.03
2018-05-03T06:51:37.491Z,17.83
2018-05-03T06:54:04.944Z,16.43
2018-05-03T06:56:33.225Z,14.07
2018-05-03T06:59:01.548Z,19.07
2018-05-03T07:01:29.090Z,16.23
2018-05-03T07:03:56.679Z,13.23
2018-05-03T07:06:24.932Z,14.87
2018-05-03T07:08:52.449Z,14.47
2018-05-03T07:11:19.968Z,12.40
2018-05-03T07:13:47.497Z,12.23
2018-05-03T07:16:15.116Z,16.27
2018-05-03T07:18:42.605Z,15.53
2018-05-03T07:21:10.917Z,11.03
2018-05-03T07:23:38.432Z,13.93
2018-05-03T07:26:07.684Z,10.90
2018-05-03T07:28:37.040Z,10.60
2018-05-03T07:31:05.324Z,12.33
2018-05-03T07:33:33.608Z,10.43
2018-05-03T07:36:01.982Z,10.57
2018-05-03T07:38:30.267Z,11.57
2018-05-03T07:40:58.597Z,10.10
2018-05-03T07:43:26.108Z,9.20
2018-05-03T07:45:53.644Z,8.53
2018-05-03T07:48:21.946Z,7.17
2018-05-03T07:51:10.352Z,8.47
2018-05-03T07:53:37.863Z,7.80
2018-05-03T07:56:05.378Z,8.63
2018-05-03T07:58:34.526Z,7.63
2018-05-03T08:01:02.047Z,10.20
2018-05-03T08:03:30.343Z,7.17
2018-05-03T08:05:58.641Z,6.70
2018-05-03T08:08:26.168Z,8.70
2018-05-03T08:10:54.548Z,8.37
2018-05-03T08:13:22.008Z,6.10
2018-05-03T08:15:50.290Z,5.13
2018-05-03T08:18:18.576Z,9.13
2018-05-03T08:20:46.868Z,8.67
2018-05-03T08:23:14.446Z,7.47
2018-05-03T08:25:42.004Z,5.50
2018-05-03T08:28:09.542Z,6.00
2018-05-03T08:30:37.840Z,7.00
2018-05-03T08:33:05.399Z,7.70
2018-05-03T08:35:32.948Z,3.93
2018-05-03T08:38:00.479Z,7.13
2018-05-03T08:40:28.769Z,7.23
2018-05-03T08:42:57.060Z,4.73
2018-05-03T08:45:24.581Z,5.00
2018-05-03T08:47:52.101Z,5.30
2018-05-03T08:50:19.646Z,8.80
2018-05-03T08:52:47.161Z,8.50
2018-05-03T08:55:14.696Z,6.60
2018-05-03T08:57:42.233Z,5.97
2018-05-03T09:00:09.747Z,6.27
2018-05-03T09:02:37.265Z,8.40
2018-05-03T09:05:04.803Z,7.93
2018-05-03T09:07:32.402Z,4.43
2018-05-03T09:09:59.849Z,5.03
2018-05-03T09:12:27.383Z,6.90
2018-05-03T09:14:54.895Z,6.40
2018-05-03T09:17:22.418Z,6.33
2018-05-03T09:19:49.947Z,5.53
2018-05-03T09:22:18.399Z,5.50
2018-05-03T09:24:45.917Z,4.63
2018-05-03T09:27:13.440Z,3.83
2018-05-03T09:29:41.724Z,3.27
2018-05-03T09:32:10.015Z,10.70
2018-05-03T09:34:37.535Z,6.90
2018-05-03T09:37:05.053Z,6.10
2018-05-03T09:39:32.568Z,6.57
2018-05-03T09:42:00.119Z,5.83
2018-05-03T09:44:27.703Z,6.07
2018-05-03T09:46:55.155Z,4.30
2018-05-03T09:49:23.435Z,4.90
2018-05-03T09:51:51.717Z,4.07
2018-05-03T09:54:20.000Z,4.27
2018-05-03T09:56:48.291Z,4.03
2018-05-03T09:59:15.806Z,5.33
2018-05-03T10:01:43.311Z,5.40
2018-05-03T10:04:10.844Z,4.13
2018-05-03T10:06:39.124Z,6.17
2018-05-03T10:09:07.396Z,5.93
2018-05-03T10:11:35.688Z,5.93
2018-05-03T10:14:03.975Z,5.30
2018-05-03T10:16:31.492Z,5.87
2018-05-03T10:18:59.022Z,3.93
2018-05-03T10:21:26.538Z,4.73
2018-05-03T10:23:54.811Z,5.23
2018-05-03T10:26:23.152Z,4.33
2018-05-03T10:28:50.672Z,5.93
2018-05-03T10:31:18.200Z,6.50
2018-05-03T10:33:45.716Z,3.13
2018-05-03T10:36:13.290Z,6.83
2018-05-03T10:38:40.801Z,3.77
2018-05-03T10:41:09.114Z,3.57
2018-05-03T10:43:36.638Z,7.57
2018-05-03T10:46:04.934Z,4.67
2018-05-03T10:48:32.457Z,6.43
2018-05-03T10:51:00.749Z,3.53
2018-05-03T10:53:29.043Z,5.60
2018-05-03T10:55:56.557Z,5.23
2018-05-03T10:58:24.072Z,5.37
2018-05-03T11:00:51.584Z,2.83
2018-05-03T11:03:19.117Z,4.23
2018-05-03T11:05:46.642Z,4.57
2018-05-03T11:08:14.159Z,4.00
2018-05-03T11:10:41.689Z,3.63
2018-05-03T11:13:09.208Z,6.57
2018-05-03T11:15:36.730Z,4.83
2018-05-03T11:18:04.262Z,9.00
2018-05-03T11:20:31.771Z,7.53
2018-05-03T11:23:00.050Z,3.47
2018-05-03T11:25:28.377Z,3.63
2018-05-03T11:27:55.920Z,4.50
2018-05-03T11:30:23.503Z,7.33
2018-05-03T11:32:51.015Z,4.33
2018-05-03T11:35:19.303Z,6.07
2018-05-03T11:37:46.815Z,5.20
2018-05-03T11:40:14.349Z,3.63
2018-05-03T11:42:41.951Z,4.93
2018-05-03T11:45:09.443Z,4.17
2018-05-03T11:47:36.966Z,4.67
2018-05-03T11:50:04.571Z,4.40
2018-05-03T11:52:32.093Z,4.27
2018-05-03T11:55:00.382Z,6.10
2018-05-03T11:57:28.697Z,3.60
2018-05-03T11:59:56.218Z,2.90
2018-05-03T12:02:24.612Z,5.53
2018-05-03T12:04:52.078Z,3.90
2018-05-03T12:07:19.597Z,3.33
2018-05-03T12:09:47.131Z,3.73
2018-05-03T12:12:14.640Z,4.03
2018-05-03T12:14:42.929Z,4.50
2018-05-03T12:17:10.452Z,5.77
2018-05-03T12:19:38.066Z,6.13
2018-05-03T12:22:05.573Z,5.03
2018-05-03T12:24:33.082Z,2.70
2018-05-03T12:27:00.590Z,3.60
2018-05-03T12:29:28.111Z,2.67
2018-05-03T12:31:55.620Z,5.53
2018-05-03T12:34:24.000Z,3.67
2018-05-03T12:36:52.284Z,6.50
2018-05-03T12:39:20.584Z,4.27
2018-05-03T12:41:48.178Z,4.60
2018-05-03T12:44:15.653Z,6.10
2018-05-03T12:46:43.206Z,5.60
2018-05-03T12:49:10.723Z,5.20
2018-05-03T12:51:38.230Z,4.30
2018-05-03T12:54:05.847Z,6.37
2018-05-03T12:56:33.397Z,3.97
2018-05-03T12:59:00.916Z,4.83
2018-05-03T13:01:28.537Z,5.67
2018-05-03T13:03:56.053Z,5.57
2018-05-03T13:06:24.467Z,3.17
2018-05-03T13:08:52.014Z,5.13
2018-05-03T13:11:19.532Z,4.03
2018-05-03T13:13:47.056Z,4.57
2018-05-03T13:16:14.587Z,4.97
2018-05-03T13:18:42.114Z,6.77
2018-05-03T13:21:09.624Z,4.53
2018-05-03T13:23:37.155Z,5.37
2018-05-03T13:26:05.457Z,6.60
2018-05-03T13:28:32.983Z,5.03
2018-05-03T13:31:01.276Z,7.03
2018-05-03T13:33:29.558Z,5.77
2018-05-03T13:35:57.129Z,5.80
2018-05-03T13:38:24.653Z,4.03
2018-05-03T13:40:52.170Z,4.93
2018-05-03T13:43:19.693Z,6.97
2018-05-03T13:45:47.989Z,5.80
2018-05-03T13:48:15.516Z,6.60
2018-05-03T13:50:43.801Z,5.20
2018-05-03T13:53:12.199Z,4.53
2018-05-03T13:55:39.719Z,4.13
2018-05-03T13:58:07.242Z,5.87
2018-05-03T14:00:34.787Z,6.53
2018-05-03T14:03:02.326Z,6.27
2018-05-03T14:05:30.615Z,5.63
2018-05-03T14:07:58.158Z,7.17
2018-05-03T14:10:26.439Z,6.13
2018-05-03T14:12:54.728Z,9.03
2018-05-03T14:15:22.280Z,5.37
2018-05-03T14:17:50.586Z,3.93
2018-05-03T14:20:18.114Z,6.53
2018-05-03T14:22:45.657Z,5.87
2018-05-03T14:25:13.952Z,5.07
2018-05-03T14:27:42.242Z,4.43
2018-05-03T14:30:09.781Z,6.50
2018-05-03T14:32:38.088Z,9.43
2018-05-03T14:35:05.598Z,5.73
2018-05-03T14:37:33.117Z,7.53
2018-05-03T14:40:00.640Z,4.97
2018-05-03T14:42:29.158Z,5.10
2018-05-03T14:44:56.682Z,4.67
2018-05-03T14:47:25.048Z,6.80
2018-05-03T14:49:52.535Z,5.83
2018-05-03T14:52:20.064Z,5.10
2018-05-03T14:54:47.563Z,8.03
2018-05-03T14:57:15.079Z,4.70
2018-05-03T14:59:43.374Z,6.03
2018-05-03T15:02:11.665Z,5.90
2018-05-03T15:04:39.192Z,5.17
2018-05-03T15:07:06.786Z,5.30
2018-05-03T15:09:34.310Z,6.33
2018-05-03T15:12:01.832Z,5.37
2018-05-03T15:14:29.375Z,5.13
2018-05-03T15:16:56.907Z,6.93
2018-05-03T15:19:25.187Z,4.90
2018-05-03T15:21:53.497Z,5.37
2018-05-03T15:24:21.007Z,6.83
2018-05-03T15:26:48.618Z,5.97
2018-05-03T15:29:16.141Z,3.87
2018-05-03T15:31:44.497Z,5.00
2018-05-03T15:34:12.025Z,4.33
2018-05-03T15:36:39.550Z,5.03
2018-05-03T15:39:07.102Z,7.03
2018-05-03T15:41:35.383Z,6.53
2018-05-03T15:44:02.935Z,5.40
2018-05-03T15:46:31.223Z,5.10
2018-05-03T15:48:58.761Z,6.97
2018-05-03T15:51:27.190Z,4.03
2018-05-03T15:53:54.709Z,4.50
2018-05-03T15:56:22.989Z,5.17
2018-05-03T15:58:51.296Z,7.43
2018-05-03T16:01:18.817Z,6.57
2018-05-03T16:03:47.129Z,5.33
2018-05-03T16:06:14.661Z,5.90
2018-05-03T16:08:42.968Z,6.27
2018-05-03T16:11:10.530Z,5.17
2018-05-03T16:13:38.543Z,5.77
2018-05-03T16:16:06.085Z,5.63
2018-05-03T16:18:33.720Z,5.87
2018-05-03T16:21:01.259Z,6.80
2018-05-03T16:23:29.535Z,6.43
2018-05-03T16:25:57.862Z,4.87
2018-05-03T16:28:25.389Z,4.83
2018-05-03T16:30:52.917Z,6.07
2018-05-03T16:33:21.206Z,6.07
2018-05-03T16:35:49.510Z,5.53
2018-05-03T16:38:17.037Z,5.00
2018-05-03T16:40:45.324Z,4.53
2018-05-03T16:43:12.881Z,5.70
2018-05-03T16:45:41.168Z,6.77
2018-05-03T16:48:08.745Z,6.27
2018-05-03T16:50:36.275Z,7.23
2018-05-03T16:53:04.578Z,4.40
2018-05-03T16:55:32.095Z,5.60
2018-05-03T16:57:59.621Z,3.47
2018-05-03T17:00:27.142Z,4.30
2018-05-03T17:02:54.715Z,5.87
2018-05-03T17:05:22.245Z,3.97
2018-05-03T17:07:50.549Z,7.30
2018-05-03T17:10:18.072Z,5.93
2018-05-03T17:12:45.600Z,9.60
2018-05-03T17:15:13.117Z,5.07
2018-05-03T17:17:40.648Z,5.10
2018-05-03T17:20:08.198Z,5.57
2018-05-03T17:22:35.720Z,4.57
2018-05-03T17:25:03.243Z,4.17
2018-05-03T17:27:31.556Z,7.20
2018-05-03T17:29:59.062Z,3.97
2018-05-03T17:32:26.587Z,5.90
2018-05-03T17:34:54.120Z,5.03
2018-05-03T17:37:21.644Z,4.97
2018-05-03T17:39:49.162Z,4.97
2018-05-03T17:42:16.705Z,5.93
2018-05-03T17:44:44.265Z,6.87
2018-05-03T17:47:11.827Z,5.47
2018-05-03T17:49:39.365Z,6.90
2018-05-03T17:52:06.950Z,5.17
2018-05-03T17:54:34.506Z,6.30
2018-05-03T17:57:02.156Z,7.17
2018-05-03T17:59:29.617Z,5.00
2018-05-03T18:01:57.181Z,5.90
2018-05-03T18:04:24.716Z,7.87
2018-05-03T18:06:53.015Z,5.73
2018-05-03T18:09:20.595Z,5.27
2018-05-03T18:11:48.137Z,6.43
2018-05-03T18:14:15.663Z,5.17
2018-05-03T18:16:43.260Z,4.30
2018-05-03T18:19:10.793Z,4.17
2018-05-03T18:21:39.070Z,3.77
2018-05-03T18:24:07.369Z,8.30
2018-05-03T18:26:34.911Z,5.03
2018-05-03T18:29:03.204Z,7.20
2018-05-03T18:31:30.764Z,6.10
2018-05-03T18:33:58.325Z,4.53
2018-05-03T18:36:25.894Z,4.73
2018-05-03T18:38:53.461Z,5.37
2018-05-03T18:41:20.999Z,4.67
2018-05-03T18:43:48.585Z,6.23
2018-05-03T18:46:16.060Z,5.13
2018-05-03T18:48:43.603Z,6.17
2018-05-03T18:51:11.203Z,6.07
2018-05-03T18:53:38.734Z,6.47
2018-05-03T18:56:06.298Z,4.70
2018-05-03T18:58:33.844Z,3.67
2018-05-03T19:01:01.442Z,3.53
2018-05-03T19:03:28.948Z,5.90
2018-05-03T19:05:56.508Z,6.17
2018-05-03T19:08:24.047Z,4.37
2018-05-03T19:10:51.635Z,5.00
2018-05-03T19:13:19.203Z,5.40
2018-05-03T19:15:46.681Z,6.00
2018-05-03T19:18:14.215Z,6.83
2018-05-03T19:20:41.730Z,7.73
2018-05-03T19:23:10.050Z,6.50
2018-05-03T19:25:37.606Z,4.60
2018-05-03T19:28:05.127Z,5.50
2018-05-03T19:30:33.458Z,8.07
2018-05-03T19:33:00.993Z,9.60
2018-05-03T19:35:28.583Z,5.37
2018-05-03T19:37:56.838Z,5.23
2018-05-03T19:40:24.418Z,5.67
2018-05-03T19:42:51.937Z,6.93
2018-05-03T19:45:20.230Z,3.67
2018-05-03T19:47:47.752Z,6.53
2018-05-03T19:50:16.094Z,8.57
2018-05-03T19:52:43.620Z,6.60
2018-05-03T19:55:11.997Z,5.83
2018-05-03T19:57:40.287Z,7.27
2018-05-03T20:00:07.864Z,4.87
2018-05-03T20:02:35.393Z,7.20
2018-05-03T20:05:03.692Z,7.23
2018-05-03T20:07:31.257Z,5.97
2018-05-03T20:09:58.806Z,8.03
2018-05-03T20:12:26.330Z,6.33
2018-05-03T20:14:53.867Z,6.87
2018-05-03T20:17:21.398Z,5.10
2018-05-03T20:19:48.917Z,5.57
2018-05-03T20:22:17.203Z,5.33
2018-05-03T20:24:45.662Z,5.20
2018-05-03T20:27:13.141Z,8.77
2018-05-03T20:29:41.421Z,7.67
2018-05-03T20:32:09.719Z,9.13
2018-05-03T20:34:37.318Z,8.97
2018-05-03T20:37:05.024Z,6.00
2018-05-03T20:39:33.342Z,5.83
2018-05-03T20:42:00.855Z,6.77
2018-05-03T20:44:29.163Z,6.50
2018-05-03T20:46:56.715Z,6.53
2018-05-03T20:49:24.236Z,6.53
2018-05-03T20:51:51.757Z,6.57
2018-05-03T20:54:19.293Z,7.07
2018-05-03T20:56:46.811Z,9.00
2018-05-03T20:59:14.336Z,9.00
2018-05-03T21:01:41.885Z,8.80
2018-05-03T21:04:09.464Z,6.67
2018-05-03T21:06:37.938Z,9.27
2018-05-03T21:09:05.460Z,6.87
2018-05-03T21:11:33.740Z,9.13
2018-05-03T21:14:02.046Z,8.03
2018-05-03T21:16:30.725Z,8.90
2018-05-03T21:18:58.312Z,9.57
2018-05-03T21:21:25.825Z,9.23
2018-05-03T21:23:54.113Z,9.30
2018-05-03T21:26:21.654Z,8.13
2018-05-03T21:28:49.156Z,7.30
2018-05-03T21:31:16.694Z,11.63
2018-05-03T21:33:44.270Z,8.43
2018-05-03T21:36:11.812Z,10.60
2018-05-03T21:38:39.488Z,7.83
2018-05-03T21:41:07.000Z,9.60
2018-05-03T21:43:34.513Z,7.37
2018-05-03T21:46:02.038Z,11.00
2018-05-03T21:48:30.316Z,9.87
2018-05-03T21:50:58.616Z,6.93
2018-05-03T21:53:26.143Z,6.27
2018-05-03T21:55:53.664Z,7.27
2018-05-03T21:58:21.171Z,8.53
2018-05-03T22:00:49.452Z,9.77
2018-05-03T22:03:17.732Z,6.30
2018-05-03T22:05:46.000Z,7.13
2018-05-03T22:08:14.302Z,7.63
2018-05-03T22:10:41.968Z,8.23
2018-05-03T22:13:09.476Z,5.50
2018-05-03T22:15:37.091Z,9.30
2018-05-03T22:18:04.654Z,5.57
2018-05-03T22:20:32.219Z,7.50
2018-05-03T22:22:59.748Z,8.80
2018-05-03T22:25:28.016Z,7.27
2018-05-03T22:27:55.529Z,7.17
2018-05-03T22:30:23.072Z,8.80
2018-05-03T22:32:50.633Z,5.93
2018-05-03T22:35:18.306Z,7.73
2018-05-03T22:37:45.837Z,7.20
2018-05-03T22:40:14.117Z,5.93
2018-05-03T22:42:42.395Z,7.80
2018-05-03T22:45:10.804Z,5.17
2018-05-03T22:47:38.303Z,6.40
2018-05-03T22:50:05.819Z,8.23
2018-05-03T22:52:33.371Z,7.33
2018-05-03T22:55:00.936Z,7.27
2018-05-03T22:57:28.447Z,6.10
2018-05-03T22:59:57.000Z,8.50
2018-05-03T23:02:24.507Z,7.00
2018-05-03T23:04:52.783Z,7.33
2018-05-03T23:07:21.073Z,7.23
2018-05-03T23:09:49.361Z,7.77
2018-05-03T23:12:16.885Z,7.03
2018-05-03T23:14:44.403Z,8.40
2018-05-03T23:17:11.915Z,5.40
2018-05-03T23:19:39.415Z,8.87
2018-05-03T23:22:06.943Z,7.93
2018-05-03T23:24:35.235Z,5.03
2018-05-03T23:27:03.517Z,6.77
2018-05-03T23:29:31.049Z,4.20
2018-05-03T23:31:58.644Z,6.40
2018-05-03T23:34:26.203Z,6.83
2018-05-03T23:36:53.765Z,8.50
2018-05-03T23:39:21.282Z,5.90
2018-05-03T23:41:48.895Z,6.50
2018-05-03T23:44:16.426Z,9.13
2018-05-03T23:46:44.690Z,7.90
2018-05-03T23:49:12.195Z,7.27
2018-05-03T23:51:39.733Z,8.13
2018-05-03T23:54:08.005Z,7.97
2018-05-03T23:56:36.282Z,6.60
2018-05-03T23:59:04.565Z,6.80
